Time;durP1;ratioP1;P1;durP2;ratioP2;P2;SDS_P1;SDS_P2;PMS_P1;PMS_P2;Temp;Humidity;BMP_temperature;BMP_pressure;BME280_temperature;BME280_humidity;BME280_pressure;Samples;Min_cycle;Max_cycle;Signal;HPM_P1;HPM_P2
2023/06/11 00:01:34;;;;;;;10.13;5.38;;;;;;;;;;4902821;28;20065;-74
2023/06/11 00:04:00;;;;;;;12.25;5.18;;;;;;;;;;4912149;28;20050;-74
2023/06/11 00:06:27;;;;;;;13.48;5.32;;;;;;;;;;4930817;28;20043;-74
2023/06/11 00:08:55;;;;;;;18.73;6.65;;;;;;;;;;4915597;28;20501;-74
2023/06/11 00:11:21;;;;;;;11.43;5.72;;;;;;;;;;4932043;28;20044;-74
2023/06/11 00:13:48;;;;;;;14.68;5.60;;;;;;;;;;4931223;28;20049;-74
2023/06/11 00:16:15;;;;;;;15.98;5.85;;;;;;;;;;4925304;28;20126;-74
2023/06/11 00:18:45;;;;;;;9.57;5.68;;;;;;;;;;4929462;28;20055;-72
2023/06/11 00:21:11;;;;;;;13.40;6.30;;;;;;;;;;4915433;28;20039;-72
2023/06/11 00:23:38;;;;;;;13.73;5.90;;;;;;;;;;4933253;28;20039;-73
2023/06/11 00:26:07;;;;;;;14.45;6.13;;;;;;;;;;4896855;28;22523;-73
2023/06/11 00:28:34;;;;;;;12.45;6.10;;;;;;;;;;4933000;28;20399;-73
2023/06/11 00:31:00;;;;;;;11.60;6.00;;;;;;;;;;4912488;28;20040;-73
2023/06/11 00:33:26;;;;;;;14.25;6.88;;;;;;;;;;4922046;28;20150;-73
2023/06/11 00:35:53;;;;;;;12.35;6.65;;;;;;;;;;4913643;28;20154;-73
2023/06/11 00:38:20;;;;;;;16.88;6.32;;;;;;;;;;4912397;28;20048;-73
2023/06/11 00:40:46;;;;;;;8.23;5.53;;;;;;;;;;4917900;28;20515;-73
2023/06/11 00:43:12;;;;;;;10.60;6.00;;;;;;;;;;4914114;28;20142;-73
2023/06/11 00:45:38;;;;;;;12.05;6.10;;;;;;;;;;4908390;28;20054;-73
2023/06/11 00:48:05;;;;;;;11.80;6.78;;;;;;;;;;4908259;28;20146;-73
2023/06/11 00:50:44;;;;;;;14.45;6.90;;;;;;;;;;4923861;28;20058;-73
2023/06/11 00:53:11;;;;;;;17.90;6.13;;;;;;;;;;4931310;28;20455;-73
2023/06/11 00:55:37;;;;;;;12.70;5.57;;;;;;;;;;4915233;28;20047;-73
2023/06/11 00:58:03;;;;;;;11.68;5.82;;;;;;;;;;4915157;28;20629;-72
2023/06/11 01:00:29;;;;;;;10.93;6.60;;;;;;;;;;4914813;28;20138;-72
2023/06/11 01:03:02;;;;;;;14.23;6.80;;;;;;;;;;4928175;28;20043;-73
2023/06/11 01:05:31;;;;;;;10.37;6.80;;;;;;;;;;4916474;28;20091;-74
2023/06/11 01:07:58;;;;;;;13.73;6.38;;;;;;;;;;4930541;28;20130;-73
2023/06/11 01:10:26;;;;;;;10.18;6.45;;;;;;;;;;4930951;28;20495;-73
2023/06/11 01:12:52;;;;;;;15.05;7.20;;;;;;;;;;4914463;28;20162;-74
2023/06/11 01:15:19;;;;;;;15.57;6.55;;;;;;;;;;4914344;28;20042;-74
2023/06/11 01:17:54;;;;;;;11.38;6.35;;;;;;;;;;4908244;28;21683;-73
2023/06/11 01:20:34;;;;;;;10.77;6.78;;;;;;;;;;4912761;28;20051;-74
2023/06/11 01:23:13;;;;;;;14.52;6.28;;;;;;;;;;4929951;28;20099;-74
2023/06/11 01:26:02;;;;;;;11.02;6.82;;;;;;;;;;4918536;28;20040;-74
2023/06/11 01:28:32;;;;;;;13.68;6.80;;;;;;;;;;4899012;28;20074;-74
2023/06/11 01:31:01;;;;;;;15.85;7.07;;;;;;;;;;4917217;28;20086;-74
2023/06/11 01:33:27;;;;;;;11.02;6.93;;;;;;;;;;4917065;28;20051;-74
2023/06/11 01:35:57;;;;;;;12.25;7.13;;;;;;;;;;4920762;28;20131;-74
2023/06/11 01:38:25;;;;;;;12.10;7.30;;;;;;;;;;4933151;28;20094;-73
2023/06/11 01:40:51;;;;;;;15.50;6.90;;;;;;;;;;4919321;28;20231;-74
2023/06/11 01:43:17;;;;;;;14.68;7.28;;;;;;;;;;4913679;28;21789;-74
2023/06/11 01:45:43;;;;;;;11.95;7.90;;;;;;;;;;4914676;28;20051;-74
2023/06/11 01:48:09;;;;;;;16.45;7.22;;;;;;;;;;4918483;28;20459;-74
2023/06/11 01:50:36;;;;;;;10.65;6.97;;;;;;;;;;4916371;28;20142;-74
2023/06/11 01:53:03;;;;;;;14.27;7.05;;;;;;;;;;4913843;28;20425;-73
2023/06/11 01:55:29;;;;;;;12.23;6.75;;;;;;;;;;4929885;28;20079;-73
2023/06/11 01:57:55;;;;;;;10.23;7.10;;;;;;;;;;4933679;28;20122;-73
2023/06/11 02:00:21;;;;;;;10.93;6.90;;;;;;;;;;4911468;28;20051;-73
2023/06/11 02:02:48;;;;;;;12.30;6.95;;;;;;;;;;4919341;28;20097;-74
2023/06/11 02:05:15;;;;;;;12.88;7.15;;;;;;;;;;4916723;28;20403;-73
2023/06/11 02:07:41;;;;;;;16.33;6.85;;;;;;;;;;4933588;28;20057;-74
2023/06/11 02:10:07;;;;;;;15.70;7.03;;;;;;;;;;4932916;28;20082;-73
2023/06/11 02:12:33;;;;;;;12.00;7.20;;;;;;;;;;4933659;28;20039;-73
2023/06/11 02:14:59;;;;;;;14.68;7.68;;;;;;;;;;4914151;28;20098;-73
2023/06/11 02:17:25;;;;;;;14.18;7.82;;;;;;;;;;4912631;28;20563;-73
2023/06/11 02:19:51;;;;;;;13.85;7.57;;;;;;;;;;4915651;28;20057;-73
2023/06/11 02:22:17;;;;;;;12.63;7.10;;;;;;;;;;4933804;28;20467;-74
2023/06/11 02:24:43;;;;;;;13.98;7.38;;;;;;;;;;4934530;28;20691;-74
2023/06/11 02:27:10;;;;;;;11.55;7.95;;;;;;;;;;4915194;28;20047;-73
2023/06/11 02:29:36;;;;;;;15.50;7.80;;;;;;;;;;4932545;28;20070;-74
2023/06/11 02:32:03;;;;;;;12.18;7.80;;;;;;;;;;4919318;28;20078;-72
2023/06/11 02:34:29;;;;;;;17.38;8.02;;;;;;;;;;4900872;28;20055;-73
2023/06/11 02:36:55;;;;;;;14.23;8.18;;;;;;;;;;4933678;28;20071;-72
2023/06/11 02:39:21;;;;;;;9.38;7.30;;;;;;;;;;4915620;28;20047;-74
2023/06/11 02:41:47;;;;;;;14.88;7.90;;;;;;;;;;4933875;28;20047;-72
2023/06/11 02:44:13;;;;;;;13.13;7.10;;;;;;;;;;4925193;28;20090;-73
2023/06/11 02:46:39;;;;;;;12.55;7.80;;;;;;;;;;4916953;28;20651;-73
2023/06/11 02:49:06;;;;;;;12.90;7.40;;;;;;;;;;4921653;28;20059;-73
2023/06/11 02:51:32;;;;;;;16.92;8.32;;;;;;;;;;4901055;29;20048;-73
2023/06/11 02:53:58;;;;;;;17.00;7.72;;;;;;;;;;4911273;29;20404;-73
2023/06/11 02:56:26;;;;;;;11.00;7.20;;;;;;;;;;4906169;29;20035;-74
2023/06/11 02:58:52;;;;;;;13.77;7.95;;;;;;;;;;4921137;29;20042;-74
2023/06/11 03:01:18;;;;;;;13.52;7.18;;;;;;;;;;4921148;29;20058;-74
2023/06/11 03:03:44;;;;;;;10.40;7.43;;;;;;;;;;4898181;29;20106;-73
2023/06/11 03:06:10;;;;;;;13.98;8.13;;;;;;;;;;4894817;29;20074;-74
2023/06/11 03:08:36;;;;;;;19.35;8.52;;;;;;;;;;4916030;29;20051;-73
2023/06/11 03:11:02;;;;;;;12.25;7.47;;;;;;;;;;4918527;29;20051;-73
2023/06/11 03:13:28;;;;;;;12.15;7.70;;;;;;;;;;4897039;29;20052;-72
2023/06/11 03:15:55;;;;;;;19.92;8.20;;;;;;;;;;4916682;29;20077;-73
2023/06/11 03:18:21;;;;;;;11.32;8.02;;;;;;;;;;4915462;29;20424;-73
2023/06/11 03:20:47;;;;;;;13.35;8.20;;;;;;;;;;4898264;29;20131;-74
2023/06/11 03:23:14;;;;;;;10.80;7.65;;;;;;;;;;4915576;29;20048;-73
2023/06/11 03:25:40;;;;;;;11.57;7.45;;;;;;;;;;4914326;29;20275;-73
2023/06/11 03:28:06;;;;;;;12.38;7.80;;;;;;;;;;4893845;29;20551;-73
2023/06/11 03:30:32;;;;;;;11.18;7.43;;;;;;;;;;4877072;29;20051;-73
2023/06/11 03:32:58;;;;;;;10.50;7.68;;;;;;;;;;4896236;29;20146;-73
2023/06/11 03:35:24;;;;;;;12.70;7.22;;;;;;;;;;4901136;29;20190;-73
2023/06/11 03:37:51;;;;;;;11.00;7.28;;;;;;;;;;4900682;29;20548;-73
2023/06/11 03:40:17;;;;;;;18.42;8.63;;;;;;;;;;4899049;29;20048;-72
2023/06/11 03:42:43;;;;;;;17.70;8.10;;;;;;;;;;4899720;29;20059;-73
2023/06/11 03:45:09;;;;;;;19.65;7.85;;;;;;;;;;4893866;29;20677;-73
2023/06/11 03:47:35;;;;;;;15.77;8.38;;;;;;;;;;4882513;28;20074;-74
2023/06/11 03:50:04;;;;;;;22.38;8.30;;;;;;;;;;4916363;28;20055;-74
2023/06/11 03:52:30;;;;;;;12.38;7.70;;;;;;;;;;4918214;28;20051;-73
2023/06/11 03:54:56;;;;;;;17.42;7.63;;;;;;;;;;4917475;28;20094;-73
2023/06/11 03:57:22;;;;;;;11.18;7.28;;;;;;;;;;4935079;28;20035;-74
2023/06/11 03:59:49;;;;;;;13.27;7.95;;;;;;;;;;4934876;28;20442;-73
2023/06/11 04:02:15;;;;;;;10.73;7.38;;;;;;;;;;4933718;28;20050;-74
2023/06/11 04:04:41;;;;;;;9.27;7.22;;;;;;;;;;4913813;28;20054;-73
2023/06/11 04:07:07;;;;;;;12.25;7.55;;;;;;;;;;4914268;28;20047;-74
2023/06/11 04:09:33;;;;;;;16.65;7.38;;;;;;;;;;4933089;28;20046;-74
2023/06/11 04:11:59;;;;;;;12.30;7.30;;;;;;;;;;4914090;28;20583;-74
2023/06/11 04:14:25;;;;;;;10.00;6.90;;;;;;;;;;4914111;28;20498;-74
2023/06/11 04:16:51;;;;;;;13.50;7.10;;;;;;;;;;4932008;28;20086;-73
2023/06/11 04:19:18;;;;;;;21.75;8.23;;;;;;;;;;4910295;28;20043;-73
2023/06/11 04:21:44;;;;;;;13.50;7.55;;;;;;;;;;4931023;28;20043;-74
2023/06/11 04:24:10;;;;;;;14.13;7.50;;;;;;;;;;4914824;28;20086;-73
2023/06/11 04:26:36;;;;;;;14.48;6.88;;;;;;;;;;4915198;28;20055;-73
2023/06/11 04:29:03;;;;;;;14.38;7.68;;;;;;;;;;4931370;28;22095;-73
2023/06/11 04:31:30;;;;;;;9.50;6.90;;;;;;;;;;4933046;28;20047;-73
2023/06/11 04:34:02;;;;;;;21.65;7.85;;;;;;;;;;4931954;28;20050;-73
2023/06/11 04:36:29;;;;;;;;;;;;;;;;;;4913693;28;20110;-72
2023/06/11 04:38:56;;;;;;;11.48;6.57;;;;;;;;;;4930156;28;20502;-73
2023/06/11 04:41:26;;;;;;;12.43;6.72;;;;;;;;;;4931514;28;21846;-72
2023/06/11 04:43:52;;;;;;;10.80;7.03;;;;;;;;;;4915880;28;20058;-72
2023/06/11 04:46:18;;;;;;;12.80;7.18;;;;;;;;;;4916222;28;20056;-74
2023/06/11 04:48:44;;;;;;;10.43;6.93;;;;;;;;;;4933423;28;20055;-74
2023/06/11 04:51:11;;;;;;;12.35;6.93;;;;;;;;;;4933947;28;20653;-74
2023/06/11 04:53:38;;;;;;;12.05;7.00;;;;;;;;;;4932725;28;20547;-74
2023/06/11 04:56:04;;;;;;;10.45;7.00;;;;;;;;;;4917292;28;20189;-73
2023/06/11 04:58:30;;;;;;;12.52;6.70;;;;;;;;;;4917038;28;20165;-74
2023/06/11 05:00:57;;;;;;;10.52;6.25;;;;;;;;;;4900283;28;20043;-74
2023/06/11 05:03:36;;;;;;;11.43;6.20;;;;;;;;;;4915269;28;20047;-74
2023/06/11 05:06:02;;;;;;;15.63;5.90;;;;;;;;;;4933050;28;20527;-74
2023/06/11 05:08:28;;;;;;;11.50;6.57;;;;;;;;;;4898588;28;20091;-74
2023/06/11 05:10:57;;;;;;;11.45;6.03;;;;;;;;;;4917009;28;20051;-73
2023/06/11 05:13:25;;;;;;;9.80;6.07;;;;;;;;;;4933393;28;20067;-73
2023/06/11 05:15:55;;;;;;;16.92;5.80;;;;;;;;;;4933843;28;20071;-74
2023/06/11 05:18:21;;;;;;;12.70;6.38;;;;;;;;;;4926789;28;20141;-74
2023/06/11 05:20:48;;;;;;;15.40;5.60;;;;;;;;;;4932082;28;20039;-73
2023/06/11 05:23:18;;;;;;;23.83;6.82;;;;;;;;;;4910443;28;20519;-74
2023/06/11 05:25:47;;;;;;;11.35;5.88;;;;;;;;;;4932063;28;20043;-74
2023/06/11 05:28:16;;;;;;;11.38;6.10;;;;;;;;;;4933938;28;20039;-73
2023/06/11 05:30:45;;;;;;;10.80;5.90;;;;;;;;;;4933947;28;20047;-74
2023/06/11 05:33:11;;;;;;;14.93;5.75;;;;;;;;;;4919213;28;20395;-74
2023/06/11 05:35:38;;;;;;;10.38;6.00;;;;;;;;;;4916490;28;20043;-74
2023/06/11 05:38:06;;;;;;;7.90;4.90;;;;;;;;;;4932893;28;20043;-73
2023/06/11 05:40:36;;;;;;;12.18;6.07;;;;;;;;;;4911795;28;20125;-72
2023/06/11 05:43:03;;;;;;;17.10;6.30;;;;;;;;;;4930349;28;20050;-73
2023/06/11 05:45:31;;;;;;;14.10;5.55;;;;;;;;;;4911025;28;20514;-73
2023/06/11 05:47:57;;;;;;;14.30;5.60;;;;;;;;;;4914115;28;20566;-73
2023/06/11 05:50:23;;;;;;;8.07;5.30;;;;;;;;;;4933584;28;20043;-73
2023/06/11 05:52:49;;;;;;;14.05;6.10;;;;;;;;;;4915512;28;20043;-73
2023/06/11 05:55:16;;;;;;;10.90;5.50;;;;;;;;;;4933124;28;20043;-73
2023/06/11 05:57:42;;;;;;;13.13;5.90;;;;;;;;;;4915892;28;20043;-73
2023/06/11 06:00:12;;;;;;;9.55;5.78;;;;;;;;;;4916100;28;20050;-73
2023/06/11 06:02:41;;;;;;;13.93;5.53;;;;;;;;;;4916534;28;20054;-72
2023/06/11 06:05:08;;;;;;;11.70;5.47;;;;;;;;;;4916024;28;20137;-73
2023/06/11 06:07:35;;;;;;;12.02;5.78;;;;;;;;;;4915191;28;20047;-73
2023/06/11 06:10:01;;;;;;;12.73;5.90;;;;;;;;;;4896166;28;20055;-74
2023/06/11 06:12:27;;;;;;;9.75;5.85;;;;;;;;;;4919534;28;20142;-73
2023/06/11 06:14:54;;;;;;;10.15;5.55;;;;;;;;;;4917457;28;20059;-73
2023/06/11 06:17:20;;;;;;;11.45;5.72;;;;;;;;;;4935300;28;21742;-74
2023/06/11 06:19:46;;;;;;;9.55;5.45;;;;;;;;;;4937261;28;20689;-73
2023/06/11 06:22:13;;;;;;;10.20;5.50;;;;;;;;;;4919429;28;20054;-73
2023/06/11 06:24:39;;;;;;;8.00;4.93;;;;;;;;;;4935676;28;20650;-73
2023/06/11 06:27:06;;;;;;;12.40;5.90;;;;;;;;;;4936219;28;20411;-73
2023/06/11 06:29:32;;;;;;;10.88;5.07;;;;;;;;;;4918793;28;20411;-73
2023/06/11 06:31:58;;;;;;;9.15;5.72;;;;;;;;;;4917436;28;20058;-73
2023/06/11 06:34:25;;;;;;;12.45;5.50;;;;;;;;;;4918557;28;20055;-73
2023/06/11 06:36:52;;;;;;;14.75;6.00;;;;;;;;;;4918432;28;20048;-74
2023/06/11 06:39:18;;;;;;;10.07;5.57;;;;;;;;;;4935495;28;20047;-74
2023/06/11 06:41:44;;;;;;;11.40;5.07;;;;;;;;;;4919693;28;20039;-73
2023/06/11 06:44:10;;;;;;;11.18;5.68;;;;;;;;;;4934901;28;20051;-74
2023/06/11 06:46:36;;;;;;;6.40;5.22;;;;;;;;;;4936703;28;20090;-73
2023/06/11 06:49:02;;;;;;;6.97;4.82;;;;;;;;;;4921005;28;20063;-72
2023/06/11 06:51:29;;;;;;;9.23;5.68;;;;;;;;;;4936651;28;20059;-73
2023/06/11 06:53:56;;;;;;;10.50;5.38;;;;;;;;;;4919164;28;20144;-73
2023/06/11 06:56:22;;;;;;;13.35;5.68;;;;;;;;;;4922580;28;20058;-73
2023/06/11 06:58:49;;;;;;;12.10;5.45;;;;;;;;;;4913048;28;20514;-73
2023/06/11 07:01:15;;;;;;;8.45;5.95;;;;;;;;;;4918374;28;20063;-73
2023/06/11 07:03:42;;;;;;;10.57;5.57;;;;;;;;;;4935529;28;21566;-72
2023/06/11 07:06:08;;;;;;;7.65;4.65;;;;;;;;;;4918373;28;20074;-73
2023/06/11 07:08:34;;;;;;;12.25;5.60;;;;;;;;;;4930170;28;20540;-73
2023/06/11 07:11:01;;;;;;;7.43;5.28;;;;;;;;;;4933465;28;20054;-74
2023/06/11 07:13:27;;;;;;;12.63;5.35;;;;;;;;;;4934542;28;20062;-73
2023/06/11 07:15:53;;;;;;;8.88;5.70;;;;;;;;;;4911908;28;20514;-73
2023/06/11 07:18:19;;;;;;;10.80;5.60;;;;;;;;;;4905814;28;20440;-73
2023/06/11 07:20:46;;;;;;;9.43;6.03;;;;;;;;;;4912693;28;20053;-74
2023/06/11 07:23:12;;;;;;;11.27;5.85;;;;;;;;;;4935257;28;20862;-73
2023/06/11 07:25:38;;;;;;;10.85;5.45;;;;;;;;;;4935360;28;20110;-74
2023/06/11 07:28:05;;;;;;;7.25;5.43;;;;;;;;;;4918784;28;20214;-73
2023/06/11 07:30:33;;;;;;;8.93;5.50;;;;;;;;;;4935330;28;20097;-74
2023/06/11 07:32:59;;;;;;;12.73;5.88;;;;;;;;;;4917284;28;21041;-73
2023/06/11 07:35:26;;;;;;;9.70;5.60;;;;;;;;;;4915767;28;20072;-74
2023/06/11 07:37:53;;;;;;;8.00;5.35;;;;;;;;;;4918117;28;20150;-74
2023/06/11 07:40:19;;;;;;;10.20;5.68;;;;;;;;;;4934181;28;20639;-74
2023/06/11 07:42:46;;;;;;;8.43;5.88;;;;;;;;;;4916948;28;21132;-73
2023/06/11 07:45:13;;;;;;;14.52;5.32;;;;;;;;;;4917659;28;20529;-74
2023/06/11 07:47:40;;;;;;;10.25;5.53;;;;;;;;;;4927334;28;20054;-75
2023/06/11 07:50:06;;;;;;;18.63;5.65;;;;;;;;;;4903546;29;20381;-74
2023/06/11 07:52:33;;;;;;;7.63;5.63;;;;;;;;;;4887540;29;20468;-73
2023/06/11 07:54:59;;;;;;;7.28;5.65;;;;;;;;;;4920532;29;20130;-74
2023/06/11 07:57:25;;;;;;;12.90;5.20;;;;;;;;;;4901610;29;20103;-74
2023/06/11 07:59:52;;;;;;;10.00;5.70;;;;;;;;;;4881798;29;20138;-74
2023/06/11 08:02:18;;;;;;;6.13;5.30;;;;;;;;;;4920060;29;20047;-74
2023/06/11 08:04:45;;;;;;;14.77;6.20;;;;;;;;;;4905981;29;20311;-74
2023/06/11 08:07:11;;;;;;;10.10;5.75;;;;;;;;;;4894769;29;20122;-73
2023/06/11 08:09:37;;;;;;;9.75;5.28;;;;;;;;;;4902939;29;20085;-73
2023/06/11 08:12:04;;;;;;;12.20;5.97;;;;;;;;;;4921613;29;20044;-73
2023/06/11 08:14:30;;;;;;;7.85;5.93;;;;;;;;;;4901275;29;20043;-73
2023/06/11 08:16:56;;;;;;;10.10;6.07;;;;;;;;;;4902315;29;20099;-73
2023/06/11 08:19:22;;;;;;;13.82;5.90;;;;;;;;;;4901789;29;20067;-74
2023/06/11 08:21:48;;;;;;;14.88;5.82;;;;;;;;;;4901661;29;20083;-73
2023/06/11 08:24:16;;;;;;;7.43;5.50;;;;;;;;;;4903396;29;20072;-73
2023/06/11 08:26:43;;;;;;;12.38;5.97;;;;;;;;;;4909924;29;20044;-74
2023/06/11 08:29:09;;;;;;;9.40;5.30;;;;;;;;;;4918498;29;20166;-74
2023/06/11 08:31:35;;;;;;;9.23;5.78;;;;;;;;;;4920222;29;20047;-74
2023/06/11 08:34:01;;;;;;;7.53;6.00;;;;;;;;;;4920079;29;20054;-74
2023/06/11 08:36:27;;;;;;;14.02;6.20;;;;;;;;;;4902235;29;20536;-74
2023/06/11 08:38:53;;;;;;;14.10;6.13;;;;;;;;;;4903293;29;20046;-74
2023/06/11 08:41:20;;;;;;;15.70;6.78;;;;;;;;;;4919881;29;21807;-74
2023/06/11 08:43:46;;;;;;;16.63;6.10;;;;;;;;;;4905347;29;20134;-74
2023/06/11 08:46:16;;;;;;;10.30;5.50;;;;;;;;;;4903477;29;20120;-74
2023/06/11 08:48:43;;;;;;;9.18;5.57;;;;;;;;;;4909176;28;20125;-74
2023/06/11 08:51:10;;;;;;;11.05;6.10;;;;;;;;;;4911927;28;20074;-74
2023/06/11 08:53:37;;;;;;;11.20;5.97;;;;;;;;;;4933245;28;20054;-74
2023/06/11 08:56:03;;;;;;;9.20;6.35;;;;;;;;;;4916692;28;20050;-74
2023/06/11 08:58:33;;;;;;;13.55;5.95;;;;;;;;;;4933431;28;20038;-75
2023/06/11 09:01:02;;;;;;;15.73;5.85;;;;;;;;;;4933858;28;20043;-73
2023/06/11 09:03:28;;;;;;;11.40;6.20;;;;;;;;;;4917025;28;20061;-74
2023/06/11 09:05:55;;;;;;;8.95;5.70;;;;;;;;;;4933946;28;20078;-73
2023/06/11 09:08:21;;;;;;;10.13;5.95;;;;;;;;;;4933635;28;20053;-74
2023/06/11 09:10:48;;;;;;;12.30;6.13;;;;;;;;;;4933371;28;20419;-74
2023/06/11 09:13:14;;;;;;;9.00;5.80;;;;;;;;;;4934362;28;20172;-74
2023/06/11 09:15:47;;;;;;;12.43;5.60;;;;;;;;;;4916204;28;20063;-74
2023/06/11 09:18:17;;;;;;;9.93;5.35;;;;;;;;;;4917290;28;20172;-75
2023/06/11 09:20:47;;;;;;;11.98;5.68;;;;;;;;;;4904076;28;20162;-74
2023/06/11 09:23:23;;;;;;;9.95;5.75;;;;;;;;;;4916689;28;20039;-75
2023/06/11 09:25:49;;;;;;;9.82;5.60;;;;;;;;;;4933962;28;20091;-75
2023/06/11 09:28:15;;;;;;;8.43;5.82;;;;;;;;;;4932921;28;20562;-75
2023/06/11 09:30:41;;;;;;;14.10;5.82;;;;;;;;;;4933698;28;20117;-74
2023/06/11 09:33:15;;;;;;;8.90;6.15;;;;;;;;;;4932965;28;20127;-74
2023/06/11 09:35:44;;;;;;;9.25;5.78;;;;;;;;;;4933222;28;20047;-74
2023/06/11 09:38:15;;;;;;;12.50;5.97;;;;;;;;;;4933051;28;20515;-74
2023/06/11 09:40:45;;;;;;;8.40;5.57;;;;;;;;;;4916464;28;20054;-74
2023/06/11 09:43:11;;;;;;;10.95;5.80;;;;;;;;;;4916520;28;20800;-74
2023/06/11 09:45:38;;;;;;;8.30;5.40;;;;;;;;;;4936063;28;20058;-75
2023/06/11 09:48:05;;;;;;;7.18;5.35;;;;;;;;;;4936292;28;20114;-75
2023/06/11 09:50:33;;;;;;;8.52;5.75;;;;;;;;;;4937460;28;20515;-75
2023/06/11 09:53:03;;;;;;;6.20;5.15;;;;;;;;;;4936899;28;20049;-74
2023/06/11 09:55:35;;;;;;;9.07;6.40;;;;;;;;;;4920377;28;20055;-74
2023/06/11 09:58:05;;;;;;;11.03;5.53;;;;;;;;;;4920688;28;20047;-74
2023/06/11 10:00:32;;;;;;;9.10;5.40;;;;;;;;;;4935992;28;20098;-74
2023/06/11 10:02:58;;;;;;;7.18;5.15;;;;;;;;;;4920518;28;20057;-74
2023/06/11 10:05:24;;;;;;;9.38;5.47;;;;;;;;;;4937130;28;20463;-75
2023/06/11 10:08:01;;;;;;;8.70;5.55;;;26.50;99.90;;;;;;4936710;28;20372;-74
2023/06/11 10:10:27;;;;;;;5.47;4.93;;;;;;;;;;4902326;28;20143;-74
2023/06/11 10:12:54;;;;;;;8.98;5.20;;;;;;;;;;4937949;28;20458;-75
2023/06/11 10:15:24;;;;;;;9.65;5.72;;;;;;;;;;4920030;28;20071;-75
2023/06/11 10:17:51;;;;;;;7.05;5.25;;;;;;;;;;4937111;28;20090;-74
2023/06/11 10:20:27;;;;;;;8.23;5.53;;;;;;;;;;4937075;28;20051;-74
2023/06/11 10:23:04;;;;;;;9.85;5.68;;;;;;;;;;4936113;28;20057;-74
2023/06/11 10:25:34;;;;;;;10.75;5.40;;;;;;;;;;4920189;28;20043;-74
2023/06/11 10:28:00;;;;;;;11.52;5.40;;;;;;;;;;4936164;28;20503;-74
2023/06/11 10:30:26;;;;;;;10.32;5.60;;;;;;;;;;4898811;28;20504;-74
2023/06/11 10:32:57;;;;;;;9.70;5.68;;;;;;;;;;4936000;28;20042;-74
2023/06/11 10:35:25;;;;;;;9.95;5.50;;;;;;;;;;4937671;28;20078;-75
2023/06/11 10:37:52;;;;;;;9.00;5.65;;;;;;;;;;4936345;28;20142;-74
2023/06/11 10:40:18;;;;;;;8.95;5.65;;;;;;;;;;4935959;28;20103;-74
2023/06/11 10:42:44;;;;;;;14.43;5.30;;;;;;;;;;4936490;28;20043;-75
2023/06/11 10:45:11;;;;;;;13.27;5.60;;;;;;;;;;4919181;28;20054;-75
2023/06/11 10:47:45;;;;;;;14.02;5.35;;;;;;;;;;4918522;28;20511;-74
2023/06/11 10:50:11;;;;;;;;;;;;;;;;;;4900494;28;20067;-74
2023/06/11 10:52:46;;;;;;;8.70;5.43;;;;;;;;;;4935875;28;19930;-75
2023/06/11 10:55:13;;;;;;;16.13;5.68;;;;;;;;;;4936937;28;20396;-75
2023/06/11 10:57:39;;;;;;;9.68;5.53;;;;;;;;;;4919513;28;20046;-75
2023/06/11 11:00:08;;;;;;;9.40;5.40;;;;;;;;;;4914383;28;20150;-75
2023/06/11 11:02:35;;;;;;;12.90;5.47;;;;;;;;;;4933010;28;20514;-75
2023/06/11 11:05:01;;;;;;;7.20;5.32;;;;;;;;;;4914080;28;20057;-75
2023/06/11 11:07:37;;;;;;;10.32;6.10;;;;;;;;;;4934802;28;20512;-75
2023/06/11 11:10:05;;;;;;;10.85;5.03;;;;;;;;;;4932538;28;20102;-75
2023/06/11 11:12:38;;;;;;;10.77;5.00;;;29.40;99.90;;;;;;4917437;28;20559;-75
2023/06/11 11:15:05;;;;;;;11.75;5.35;;;;;;;;;;4933278;28;20524;-75
2023/06/11 11:17:32;;;;;;;9.93;5.15;;;;;;;;;;4920019;28;20125;-75
2023/06/11 11:19:58;;;;;;;11.55;5.45;;;;;;;;;;4935652;28;20047;-75
2023/06/11 11:22:29;;;;;;;8.65;5.97;;;;;;;;;;4935954;28;20049;-75
2023/06/11 11:24:59;;;;;;;6.28;5.03;;;;;;;;;;4921443;28;20059;-75
2023/06/11 11:27:25;;;;;;;12.00;5.18;;;;;;;;;;4917278;28;20057;-76
2023/06/11 11:29:54;;;;;;;5.45;4.95;;;;;;;;;;4919032;28;20042;-74
2023/06/11 11:32:21;;;;;;;7.50;5.32;;;;;;;;;;4935134;28;20050;-75
2023/06/11 11:34:47;;;;;;;9.30;5.55;;;;;;;;;;4917927;28;20051;-75
2023/06/11 11:37:13;;;;;;;7.07;4.80;;;;;;;;;;4934813;28;20518;-75
2023/06/11 11:39:39;;;;;;;8.82;5.03;;;;;;;;;;4934291;28;20134;-74
2023/06/11 11:42:09;;;;;;;6.93;4.80;;;;;;;;;;4896412;28;20047;-73
2023/06/11 11:44:39;;;;;;;9.13;5.53;;;31.00;99.90;;;;;;4909914;28;20170;-75
2023/06/11 11:47:08;;;;;;;11.55;5.10;;;;;;;;;;4898007;28;20165;-75
2023/06/11 11:49:35;;;;;;;6.85;5.25;;;;;;;;;;4917489;28;20063;-74
2023/06/11 11:52:01;;;;;;;7.50;4.80;;;;;;;;;;4912964;28;20087;-75
2023/06/11 11:54:27;;;;;;;7.20;4.85;;;;;;;;;;4934791;28;20805;-75
2023/06/11 11:57:03;;;;;;;7.22;4.80;;;;;;;;;;4935026;28;20043;-75
2023/06/11 11:59:31;;;;;;;8.02;4.78;;;;;;;;;;4934537;28;20041;-74
2023/06/11 12:01:58;;;;;;;6.30;5.07;;;;;;;;;;4935163;28;20065;-74
2023/06/11 12:04:40;;;;;;;7.10;5.20;;;;;;;;;;4934268;28;20087;-76
2023/06/11 12:07:07;;;;;;;8.85;5.30;;;;;;;;;;4898482;28;20055;-74
2023/06/11 12:09:37;;;;;;;6.97;4.97;;;;;;;;;;4918334;28;20472;-74
2023/06/11 12:12:03;;;;;;;7.53;5.30;;;;;;;;;;4915675;28;20118;-74
2023/06/11 12:14:29;;;;;;;11.30;5.55;;;;;;;;;;4933237;28;20521;-74
2023/06/11 12:16:55;;;;;;;8.05;5.32;;;;;;;;;;4935465;28;20114;-75
2023/06/11 12:19:22;;;;;;;6.72;4.70;;;;;;;;;;4933891;28;20049;-74
2023/06/11 12:21:48;;;;;;;9.10;5.15;;;;;;;;;;4933755;28;20043;-75
2023/06/11 12:24:15;;;;;;;7.50;5.07;;;;;;;;;;4933434;28;20130;-74
2023/06/11 12:26:51;;;;;;;8.35;4.68;;;;;;;;;;4912681;28;20821;-74
2023/06/11 12:29:17;;;;;;;7.43;4.85;;;;;;;;;;4918520;28;20512;-74
2023/06/11 12:31:45;;;;;;;6.70;4.78;;;;;;;;;;4919555;28;20062;-74
2023/06/11 12:34:15;;;;;;;5.65;5.05;;;;;;;;;;4918386;28;20051;-75
2023/06/11 12:36:45;;;;;;;12.57;5.70;;;;;;;;;;4935250;28;20157;-75
2023/06/11 12:39:11;;;;;;;7.20;5.22;;;;;;;;;;4916485;28;20097;-74
2023/06/11 12:41:37;;;;;;;7.68;4.97;;;;;;;;;;4909699;29;20122;-75
2023/06/11 12:44:03;;;;;;;6.97;4.97;;;;;;;;;;4913386;28;21187;-74
2023/06/11 12:46:30;;;;;;;7.82;5.07;;;;;;;;;;4935411;28;21010;-74
2023/06/11 12:48:57;;;;;;;6.13;4.82;;;;;;;;;;4933628;28;20055;-74
2023/06/11 12:51:23;;;;;;;5.70;4.90;;;;;;;;;;4930503;28;20054;-73
2023/06/11 12:53:52;;;;;;;8.65;4.82;;;;;;;;;;4934438;28;20054;-74
2023/06/11 12:56:22;;;;;;;9.27;5.00;;;;;;;;;;4933851;28;20050;-74
2023/06/11 12:58:49;;;;;;;6.43;4.78;;;;;;;;;;4917419;28;20126;-74
2023/06/11 13:01:15;;;;;;;9.75;5.07;;;;;;;;;;4918032;28;20129;-74
2023/06/11 13:03:41;;;;;;;8.07;5.10;;;;;;;;;;4934548;28;20047;-74
2023/06/11 13:06:08;;;;;;;9.90;5.18;;;;;;;;;;4915523;28;20055;-75
2023/06/11 13:08:34;;;;;;;7.25;4.97;;;;;;;;;;4899446;28;20614;-74
2023/06/11 13:11:00;;;;;;;7.47;4.70;;;;;;;;;;4917535;28;20127;-74
2023/06/11 13:13:26;;;;;;;8.02;4.82;;;;;;;;;;4927029;28;20160;-74
2023/06/11 13:15:53;;;;;;;5.63;4.90;;;;;;;;;;4913143;28;20041;-75
2023/06/11 13:18:19;;;;;;;11.90;5.13;;;;;;;;;;4934630;28;20051;-75
2023/06/11 13:20:46;;;;;;;7.07;4.60;;;;;;;;;;4934020;28;20681;-74
2023/06/11 13:23:19;;;;;;;11.82;4.63;;;;;;;;;;4935687;28;20114;-74
2023/06/11 13:25:45;;;;;;;8.30;4.75;;;;;;;;;;4917624;28;20391;-74
2023/06/11 13:28:11;;;;;;;5.90;4.68;;;;;;;;;;4896581;28;20054;-74
2023/06/11 13:30:38;;;;;;;9.43;5.53;;;;;;;;;;4916574;28;20523;-74
2023/06/11 13:33:04;;;;;;;7.78;4.72;;;;;;;;;;4934027;28;20425;-74
2023/06/11 13:35:30;;;;;;;10.80;5.03;;;;;;;;;;4914973;28;20504;-74
2023/06/11 13:37:56;;;;;;;13.18;4.97;;;;;;;;;;4912124;28;20050;-73
2023/06/11 13:40:22;;;;;;;9.02;4.60;;;;;;;;;;4934840;28;20051;-74
2023/06/11 13:42:48;;;;;;;8.00;4.90;;;;;;;;;;4934038;28;20269;-74
2023/06/11 13:45:14;;;;;;;5.85;4.78;;;;;;;;;;4917458;28;20058;-75
2023/06/11 13:47:40;;;;;;;7.30;5.20;;;;;;;;;;4935913;28;20682;-75
2023/06/11 13:50:06;;;;;;;9.73;5.13;;;;;;;;;;4926688;28;20059;-75
2023/06/11 13:52:33;;;;;;;11.85;4.50;;;;;;;;;;4916206;28;20179;-74
2023/06/11 13:54:59;;;;;;;9.80;4.75;;;;;;;;;;4933854;28;20054;-75
2023/06/11 13:57:27;;;;;;;6.20;5.07;;;;;;;;;;4919957;28;20617;-75
2023/06/11 13:59:54;;;;;;;7.40;5.13;;;;;;;;;;4918280;28;20170;-74
2023/06/11 14:02:20;;;;;;;6.55;4.60;;;;;;;;;;4932339;28;20094;-74
2023/06/11 14:04:46;;;;;;;5.18;4.68;;;;;;;;;;4911851;28;20170;-75
2023/06/11 14:07:12;;;;;;;6.70;5.03;;;;;;;;;;4919108;28;20051;-74
2023/06/11 14:09:39;;;;;;;5.88;4.70;;;;;;;;;;4916152;28;20563;-75
2023/06/11 14:12:06;;;;;;;6.90;4.82;;;;;;;;;;4916779;28;20098;-75
2023/06/11 14:14:32;;;;;;;8.20;5.15;;;;;;;;;;4934292;28;20055;-75
2023/06/11 14:17:01;;;;;;;7.60;5.30;;;;;;;;;;4934507;28;20039;-75
2023/06/11 14:19:27;;;;;;;6.88;5.13;;;;;;;;;;4916128;28;20745;-75
2023/06/11 14:21:54;;;;;;;7.25;4.93;;;;;;;;;;4933468;28;20066;-74
2023/06/11 14:24:20;;;;;;;6.80;5.03;;;;;;;;;;4933069;28;20142;-73
2023/06/11 14:26:46;;;;;;;7.88;4.82;;;;;;;;;;4897033;28;20043;-74
2023/06/11 14:29:12;;;;;;;6.75;4.93;;;;;;;;;;4917074;28;20043;-74
2023/06/11 14:31:38;;;;;;;7.70;4.68;;;;;;;;;;4913427;28;20051;-74
2023/06/11 14:34:04;;;;;;;13.80;4.80;;;;;;;;;;4937877;28;20055;-75